Time;durP1;ratioP1;P1;durP2;ratioP2;P2;SDS_P1;SDS_P2;PMS_P1;PMS_P2;Temp;Humidity;BMP_temperature;BMP_pressure;BME280_temperature;BME280_humidity;BME280_pressure;Samples;Min_cycle;Max_cycle;Signal;HPM_P1;HPM_P2
2021/07/06 00:00:25;;;;;;;3.30;1.08;;;;;;;18.05;78.58;100347.88;4996560;28;20029;-73
2021/07/06 00:02:51;;;;;;;2.70;1.25;;;;;;;18.17;78.03;100343.50;5036107;28;20060;-72
2021/07/06 00:05:18;;;;;;;3.35;0.88;;;;;;;18.19;77.64;100345.94;5008606;28;20475;-72
2021/07/06 00:07:46;;;;;;;4.25;0.90;;;;;;;18.03;78.24;100357.78;5030085;28;20511;-71
2021/07/06 00:10:14;;;;;;;1.67;0.98;;;;;;;17.98;78.82;100345.31;5029492;28;20379;-72
2021/07/06 00:12:39;;;;;;;3.13;1.23;;;;;;;18.06;78.34;100346.84;5017257;28;20060;-71
2021/07/06 00:15:07;;;;;;;4.93;0.90;;;;;;;18.09;77.78;100346.44;5015358;28;20124;-72
2021/07/06 00:17:32;;;;;;;3.92;1.33;;;;;;;18.03;78.21;100344.69;5028385;28;20383;-71
2021/07/06 00:19:58;;;;;;;2.05;1.33;;;;;;;18.04;78.21;100347.06;5012141;28;20039;-72
2021/07/06 00:22:23;;;;;;;2.85;1.00;;;;;;;17.96;78.38;100342.09;5012577;28;20400;-71
2021/07/06 00:24:49;;;;;;;5.70;1.00;;;;;;;17.95;78.69;100339.69;5011898;28;20499;-72
2021/07/06 00:27:14;;;;;;;8.27;1.23;;;;;;;18.00;78.52;100332.78;5011419;28;20519;-71
2021/07/06 00:29:40;;;;;;;3.72;1.00;;;;;;;17.99;78.57;100331.19;5002220;28;20598;-71
2021/07/06 00:32:06;;;;;;;2.72;1.02;;;;;;;17.96;78.86;100330.81;5015638;28;20033;-71
2021/07/06 00:34:32;;;;;;;2.75;0.88;;;;;;;17.96;78.83;100349.97;5012137;28;20400;-72
2021/07/06 00:36:58;;;;;;;5.55;0.80;;;;;;;17.90;79.08;100359.50;5029250;28;20339;-72
2021/07/06 00:39:23;;;;;;;1.48;0.73;;;;;;;17.87;79.56;100348.63;5008526;28;20017;-72
2021/07/06 00:41:49;;;;;;;2.30;0.77;;;;;;;17.84;79.45;100349.06;5009776;28;20400;-72
2021/07/06 00:44:17;;;;;;;3.92;0.90;;;;;;;17.84;80.11;100334.16;4995075;28;20057;-72
2021/07/06 00:46:43;;;;;;;2.20;1.02;;;;;;;17.89;80.17;100315.94;5031727;28;20029;-72
2021/07/06 00:49:09;;;;;;;7.05;2.10;;;;;;;17.88;80.50;100324.81;5024347;28;20037;-72
2021/07/06 00:51:35;;;;;;;3.63;0.90;;;;;;;17.75;81.10;100326.75;5007900;28;20108;-72
2021/07/06 00:54:02;;;;;;;2.80;1.00;;;;;;;17.75;81.40;100324.91;5011436;28;20037;-72
2021/07/06 00:56:28;;;;;;;1.95;1.25;;;;;;;17.78;81.12;100323.66;5028874;28;20043;-73
2021/07/06 00:58:54;;;;;;;4.03;1.00;;;;;;;17.74;81.57;100315.44;5008494;28;20021;-72
2021/07/06 01:01:19;;;;;;;5.85;1.00;;;;;;;17.70;81.83;100306.38;5009812;28;20412;-72
2021/07/06 01:03:47;;;;;;;3.72;0.80;;;;;;;17.82;81.70;100302.06;5002208;28;20029;-72
2021/07/06 01:06:13;;;;;;;5.05;1.70;;;;;;;17.73;81.64;100299.94;5009796;28;20041;-72
2021/07/06 01:08:39;;;;;;;3.08;0.82;;;;;;;17.80;81.12;100290.16;5027178;28;20025;-72
2021/07/06 01:11:05;;;;;;;6.68;1.10;;;;;;;17.77;81.22;100275.69;5001607;28;20419;-72
2021/07/06 01:13:33;;;;;;;2.60;0.98;;;;;;;17.66;81.66;100269.31;5010883;28;20029;-72
2021/07/06 01:15:58;;;;;;;5.55;1.00;;;;;;;17.67;81.57;100265.69;5011183;28;20056;-72
2021/07/06 01:18:24;;;;;;;1.95;0.90;;;;;;;17.71;81.20;100263.44;5010321;28;20029;-72
2021/07/06 01:20:52;;;;;;;1.02;0.90;;;;;;;17.59;81.43;100271.19;5027938;28;20040;-72
2021/07/06 01:23:21;;;;;;;2.03;1.05;;;;;;;17.58;81.88;100259.09;5015899;28;20042;-72
2021/07/06 01:25:48;;;;;;;2.30;1.02;;;;;;;17.61;81.28;100263.94;5026586;28;20028;-73
2021/07/06 01:28:14;;;;;;;1.33;1.17;;;;;;;17.58;81.49;100266.97;5044917;22;20033;-71
2021/07/06 01:30:40;;;;;;;3.08;1.15;;;;;;;17.71;80.94;100274.72;5029313;28;20429;-72
2021/07/06 01:33:06;;;;;;;1.85;0.93;;;;;;;17.66;81.18;100274.56;5014762;28;20025;-70
2021/07/06 01:35:32;;;;;;;4.53;1.10;;;;;;;17.59;81.35;100265.94;4997479;28;20072;-72
2021/07/06 01:38:01;;;;;;;2.65;1.25;;;;;;;17.60;81.73;100261.53;4992322;28;20339;-72
2021/07/06 01:40:28;;;;;;;4.55;1.35;;;;;;;17.71;81.51;100230.16;5001480;28;20389;-72
2021/07/06 01:42:55;;;;;;;2.85;1.65;;;;;;;17.68;81.76;100242.88;4999863;23;20038;-72
2021/07/06 01:45:26;;;;;;;1.40;1.17;;;;;;;17.61;82.27;100242.13;5015148;28;20049;-73
2021/07/06 01:47:57;;;;;;;7.93;1.70;;;;;;;17.53;82.72;100237.97;5024348;28;20595;-73
2021/07/06 01:50:31;;;;;;;9.00;2.33;;;;;;;17.48;83.17;100235.22;4988972;28;20042;-72
2021/07/06 01:52:59;;;;;;;7.35;1.90;;;;;;;17.58;82.96;100211.13;4975936;28;20034;-72
2021/07/06 01:55:29;;;;;;;12.20;1.90;;;;;;;17.56;82.80;100216.59;4984492;28;20030;-72
2021/07/06 01:57:56;;;;;;;4.88;2.30;;;;;;;17.56;82.96;100219.22;4990582;28;20062;-72
2021/07/06 02:00:25;;;;;;;4.13;2.10;;;;;;;17.54;83.19;100209.94;4991782;28;20636;-72
2021/07/06 02:02:54;;;;;;;9.95;2.20;;;;;;;17.57;83.17;100223.41;4991730;28;20022;-73
2021/07/06 02:05:30;;;;;;;4.80;2.00;;;;;;;17.61;82.69;100222.00;4989172;28;20049;-73
2021/07/06 02:07:57;;;;;;;8.38;1.75;;;;;;;17.58;82.79;100214.56;4993037;28;20037;-73
2021/07/06 02:10:24;;;;;;;9.25;1.80;;;;;;;17.57;82.68;100215.56;4987174;28;20415;-72
2021/07/06 02:12:49;;;;;;;6.20;1.80;;;;;;;17.58;82.54;100225.03;5005756;28;20400;-73
2021/07/06 02:15:16;;;;;;;5.88;2.35;;;;;;;17.58;81.96;100219.78;4988844;28;20030;-72
2021/07/06 02:17:42;;;;;;;6.53;2.08;;;;;;;17.49;82.18;100216.63;4987699;28;20045;-72
2021/07/06 02:20:10;;;;;;;8.75;2.35;;;;;;;17.51;81.87;100203.31;4987584;28;20069;-73
2021/07/06 02:22:37;;;;;;;2.60;1.70;;;;;;;17.55;81.75;100201.88;4991330;28;20057;-73
2021/07/06 02:25:07;;;;;;;5.65;2.00;;;;;;;17.55;81.66;100207.09;5000920;28;20045;-73
2021/07/06 02:27:32;;;;;;;5.95;2.05;;;;;;;17.58;81.47;100208.50;4974511;28;20038;-72
2021/07/06 02:29:58;;;;;;;4.93;2.00;;;;;;;17.58;81.45;100208.50;4988431;28;20038;-73
2021/07/06 02:32:24;;;;;;;4.45;2.08;;;;;;;17.55;81.55;100195.84;4995276;28;20455;-73
2021/07/06 02:34:50;;;;;;;9.15;2.90;;;;;;;17.54;81.47;100192.41;5010973;28;20173;-73
2021/07/06 02:37:15;;;;;;;8.10;1.90;;;;;;;17.48;81.85;100198.53;4989240;28;20108;-72
2021/07/06 02:39:40;;;;;;;8.35;2.55;;;;;;;17.49;81.71;100197.50;4988348;28;20027;-73
2021/07/06 02:42:06;;;;;;;5.45;2.20;;;;;;;17.51;81.90;100201.50;4996030;28;20034;-72
2021/07/06 02:44:31;;;;;;;4.88;2.30;;;;;;;17.48;81.76;100206.41;4995393;28;20019;-73
2021/07/06 02:46:57;;;;;;;3.25;1.83;;;;;;;17.48;81.57;100203.78;4987047;28;20401;-73
2021/07/06 02:49:22;;;;;;;6.57;2.20;;;;;;;17.48;81.68;100196.69;4988152;28;20021;-73
2021/07/06 02:51:48;;;;;;;6.78;1.77;;;;;;;17.51;81.48;100187.59;4990388;28;20026;-73
2021/07/06 02:54:13;;;;;;;4.05;2.05;;;;;;;17.43;81.75;100180.03;4989587;28;20042;-73
2021/07/06 02:56:39;;;;;;;6.80;2.13;;;;;;;17.51;81.77;100184.97;4983954;28;20488;-72
2021/07/06 02:59:04;;;;;;;4.68;1.92;;;;;;;17.47;81.77;100186.44;4993110;28;20026;-72
2021/07/06 03:01:30;;;;;;;11.23;2.83;;;;;;;17.39;82.05;100178.84;4998123;28;20396;-72
2021/07/06 03:03:56;;;;;;;5.47;2.03;;;;;;;17.40;82.44;100180.44;4992594;28;20029;-73
2021/07/06 03:06:21;;;;;;;6.93;2.10;;;;;;;17.47;81.88;100181.19;4990383;28;20041;-73
2021/07/06 03:08:48;;;;;;;4.15;1.88;;;;;;;17.42;81.76;100162.69;4986692;28;20023;-71
2021/07/06 03:11:14;;;;;;;4.88;2.22;;;;;;;17.47;81.53;100161.00;4982661;28;20042;-72
2021/07/06 03:13:40;;;;;;;8.68;2.10;;;;;;;17.39;81.95;100160.50;4980833;28;20049;-73
2021/07/06 03:16:05;;;;;;;9.20;2.22;;;;;;;17.34;82.14;100155.13;4970881;28;20037;-73
2021/07/06 03:18:31;;;;;;;5.15;2.20;;;;;;;17.35;82.08;100151.47;5000718;28;20076;-72
2021/07/06 03:20:57;;;;;;;6.75;2.15;;;;;;;17.35;82.04;100146.22;5004375;28;20029;-73
2021/07/06 03:23:23;;;;;;;5.50;2.17;;;;;;;17.30;82.04;100142.44;4974218;28;20041;-72
2021/07/06 03:25:48;;;;;;;5.88;2.40;;;;;;;17.38;81.93;100138.72;4990318;28;20026;-71
2021/07/06 03:28:14;;;;;;;5.30;2.25;;;;;;;17.31;81.96;100144.03;4990884;28;20033;-73
2021/07/06 03:30:40;;;;;;;7.75;2.15;;;;;;;17.21;82.47;100135.06;4995938;28;20042;-73
2021/07/06 03:33:09;;;;;;;6.65;2.22;;;;;;;17.28;82.29;100128.75;4997900;28;20477;-71
2021/07/06 03:35:35;;;;;;;8.02;2.10;;;;;;;17.34;81.95;100121.84;4990395;28;20041;-73
2021/07/06 03:38:00;;;;;;;7.80;2.95;;;;;;;17.33;81.70;100128.13;4984060;28;20101;-74
2021/07/06 03:40:26;;;;;;;7.97;2.20;;;;;;;17.37;81.69;100124.03;4974650;28;20475;-72
2021/07/06 03:42:52;;;;;;;7.75;2.67;;;;;;;17.28;82.11;100120.09;4998820;28;20388;-72
2021/07/06 03:45:20;;;;;;;7.18;3.00;;;;;;;17.26;81.88;100116.91;4998188;28;20132;-73
2021/07/06 03:47:46;;;;;;;5.55;2.30;;;;;;;17.30;81.81;100121.47;5000050;28;20029;-72
2021/07/06 03:50:20;;;;;;;4.90;2.33;;;;;;;17.36;81.29;100109.31;4991823;28;20026;-72
2021/07/06 03:52:57;;;;;;;5.72;1.95;;;;;;;17.35;81.40;100093.81;4992831;28;20034;-72
2021/07/06 03:55:27;;;;;;;4.68;2.08;;;;;;;17.33;81.51;100083.56;4986336;28;20056;-73
2021/07/06 03:57:52;;;;;;;4.28;2.10;;;;;;;17.37;81.12;100055.91;5001795;28;20100;-73
2021/07/06 04:00:21;;;;;;;11.23;2.08;;;;;;;17.38;81.07;100062.75;4992297;28;20046;-73
2021/07/06 04:02:48;;;;;;;15.75;3.88;;;;;;;17.36;81.29;100067.41;4996577;28;20405;-72
2021/07/06 04:05:14;;;;;;;3.83;2.28;;;;;;;17.38;81.58;100059.31;4990824;28;20061;-73
2021/07/06 04:07:41;;;;;;;7.43;2.00;;;;;;;17.35;81.52;100060.56;4992684;28;20034;-72
2021/07/06 04:10:09;;;;;;;6.47;2.60;;;;;;;17.30;81.73;100074.31;4984604;28;20030;-73
2021/07/06 04:12:35;;;;;;;8.02;1.90;;;;;;;17.29;81.83;100070.09;4996756;28;20039;-72
2021/07/06 04:15:01;;;;;;;8.65;1.90;;;;;;;17.30;81.69;100071.69;4989330;28;20031;-72
2021/07/06 04:17:26;;;;;;;7.47;1.88;;;;;;;17.36;81.57;100058.75;5006155;28;20057;-73
2021/07/06 04:19:54;;;;;;;5.07;2.10;;;;;;;17.35;81.72;100057.97;4996731;28;20161;-73
2021/07/06 04:22:19;;;;;;;5.88;2.00;;;;;;;17.37;81.30;100068.22;4992649;28;20065;-72
2021/07/06 04:24:45;;;;;;;2.22;1.63;;;;;;;17.41;81.07;100067.56;4991404;28;20022;-73
2021/07/06 04:27:10;;;;;;;3.42;1.67;;;;;;;17.38;81.33;100067.97;4982647;28;20081;-73
2021/07/06 04:29:36;;;;;;;6.55;2.38;;;;;;;17.41;80.88;100074.63;4994177;28;20030;-73
2021/07/06 04:32:01;;;;;;;8.50;2.20;;;;;;;17.42;81.04;100079.66;4993797;28;20480;-72
2021/07/06 04:34:27;;;;;;;4.80;1.77;;;;;;;17.50;80.55;100084.59;4976073;28;20039;-73
2021/07/06 04:36:52;;;;;;;9.65;2.58;;;;;;;17.50;80.46;100091.66;4993995;28;20034;-74
2021/07/06 04:39:18;;;;;;;5.50;1.73;;;;;;;17.47;80.83;100098.13;5017301;28;20034;-73
2021/07/06 04:41:44;;;;;;;7.93;1.98;;;;;;;17.46;81.07;100100.94;5003630;28;20558;-74
2021/07/06 04:44:11;;;;;;;5.78;1.70;;;;;;;17.52;80.98;100098.28;4982683;28;20038;-73
2021/07/06 04:46:37;;;;;;;11.40;2.25;;;;;;;17.50;81.31;100089.03;4997054;28;20092;-75
2021/07/06 04:49:02;;;;;;;6.47;2.50;;;;;;;17.41;82.11;100099.00;4995033;28;20471;-74
2021/07/06 04:51:29;;;;;;;8.52;2.30;;;;;;;17.39;82.34;100089.75;4995989;28;20332;-74
2021/07/06 04:53:55;;;;;;;5.68;1.90;;;;;;;17.39;82.18;100101.03;4996330;28;20037;-73
2021/07/06 04:56:22;;;;;;;5.05;2.50;;;;;;;17.40;82.23;100109.69;5000995;28;20058;-73
2021/07/06 04:58:47;;;;;;;3.28;1.90;;;;;;;17.39;82.18;100116.75;4990297;28;20069;-75
2021/07/06 05:01:13;;;;;;;7.75;2.20;;;;;;;17.43;81.68;100133.66;4998028;28;20277;-74
2021/07/06 05:03:40;;;;;;;13.85;2.92;;;;;;;17.41;81.98;100145.38;5001986;28;20403;-74
2021/07/06 05:06:06;;;;;;;5.80;2.17;;;;;;;17.47;81.53;100149.75;4975672;28;20121;-73
2021/07/06 05:08:33;;;;;;;9.77;2.08;;;;;;;17.51;81.68;100158.75;4994543;28;20087;-73
2021/07/06 05:11:00;;;;;;;8.30;2.47;;;;;;;17.44;81.64;100169.34;4984419;28;20035;-74
2021/07/06 05:13:26;;;;;;;5.20;2.03;;;;;;;17.50;81.02;100159.81;4973525;28;20109;-74
2021/07/06 05:15:52;;;;;;;5.75;1.52;;;;;;;17.49;81.10;100179.94;5003795;28;20080;-73
2021/07/06 05:18:18;;;;;;;5.13;1.75;;;;;;;17.60;80.18;100162.72;4986614;28;20038;-73
2021/07/06 05:20:43;;;;;;;6.53;1.73;;;;;;;17.57;80.67;100157.88;5007003;28;20026;-73
2021/07/06 05:23:09;;;;;;;6.63;1.50;;;;;;;17.48;81.90;100188.03;4998635;28;20050;-74
2021/07/06 05:25:35;;;;;;;7.50;1.52;;;;;;;17.55;81.03;100177.47;4976436;28;20026;-73
2021/07/06 05:28:00;;;;;;;5.32;1.80;;;;;;;17.51;82.04;100171.88;4999366;28;20026;-74
2021/07/06 05:30:26;;;;;;;5.47;1.58;;;;;;;17.56;81.62;100173.84;4997328;28;20037;-72
2021/07/06 05:32:52;;;;;;;4.15;1.50;;;;;;;17.69;81.10;100166.66;5010904;28;20034;-74
2021/07/06 05:35:17;;;;;;;9.93;1.90;;;;;;;17.55;81.68;100177.47;4988499;28;20046;-74
2021/07/06 05:37:43;;;;;;;6.65;1.73;;;;;;;17.50;82.49;100199.13;4973201;28;20038;-74
2021/07/06 05:40:10;;;;;;;3.10;1.50;;;;;;;17.54;81.99;100195.03;4977147;28;20040;-74
2021/07/06 05:42:38;;;;;;;8.20;1.35;;;;;;;17.66;81.41;100182.00;4997060;28;20603;-73
2021/07/06 05:45:04;;;;;;;3.55;1.58;;;;;;;17.77;80.30;100156.91;4988269;28;20034;-73
2021/07/06 05:47:34;;;;;;;4.63;1.63;;;;;;;17.82;80.50;100155.22;4980365;28;20113;-73
2021/07/06 05:49:59;;;;;;;4.90;1.38;;;;;;;17.83;80.16;100163.88;4992069;28;20027;-73
2021/07/06 05:52:27;;;;;;;5.32;1.20;;;;;;;17.76;80.91;100165.78;4991831;28;20499;-73
2021/07/06 05:54:53;;;;;;;5.45;1.70;;;;;;;17.72;81.28;100149.66;4999553;28;20030;-74
2021/07/06 05:57:19;;;;;;;5.85;1.90;;;;;;;17.82;81.21;100146.53;4982772;28;20125;-74
2021/07/06 05:59:44;;;;;;;4.63;1.40;;;;;;;17.89;80.44;100128.94;4989441;28;20026;-74
2021/07/06 06:02:10;;;;;;;6.55;1.60;;;;;;;17.92;80.55;100107.53;4995490;28;20077;-73
2021/07/06 06:04:35;;;;;;;6.03;2.15;;;;;;;17.87;81.08;100099.50;4987100;28;20049;-73
2021/07/06 06:07:01;;;;;;;6.50;1.52;;;;;;;17.87;80.85;100095.06;4986897;28;20038;-74
2021/07/06 06:09:26;;;;;;;1.95;0.73;;;;;;;17.97;79.23;100078.81;4989982;28;20100;-75
2021/07/06 06:11:52;;;;;;;2.40;1.00;;;;;;;18.11;78.93;100084.69;5013648;28;20030;-73
2021/07/06 06:14:18;;;;;;;1.63;1.17;;;;;;;18.12;78.36;100088.09;4988257;28;20034;-74
2021/07/06 06:16:44;;;;;;;4.50;1.23;;;;;;;18.07;78.53;100110.56;4991517;28;20386;-73
2021/07/06 06:19:10;;;;;;;4.80;1.00;;;;;;;18.12;78.26;100130.88;4993837;28;20038;-73
2021/07/06 06:21:35;;;;;;;3.50;0.95;;;;;;;18.09;78.56;100118.19;4989969;28;20026;-74
2021/07/06 06:24:01;;;;;;;3.20;1.00;;;;;;;18.09;78.71;100090.13;4992533;28;20042;-74
2021/07/06 06:26:26;;;;;;;4.82;1.27;;;;;;;18.02;79.12;100083.38;4994848;28;20034;-72
2021/07/06 06:28:52;;;;;;;4.90;0.90;;;;;;;18.03;79.14;100082.38;4989532;28;20026;-73
2021/07/06 06:31:17;;;;;;;3.38;1.27;;;;;;;18.05;79.21;100078.50;4993591;28;20472;-73
2021/07/06 06:33:44;;;;;;;2.95;1.15;;;;;;;17.96;79.25;100084.28;4993415;28;20070;-73
2021/07/06 06:36:12;;;;;;;3.33;1.40;;;;;;;17.98;79.62;100075.16;4987729;28;20041;-74
2021/07/06 06:38:37;;;;;;;2.35;0.90;;;;;;;18.08;78.22;100057.06;5001964;28;20412;-72
2021/07/06 06:41:03;;;;;;;2.65;0.93;;;;;;;18.06;78.40;100048.63;4995966;28;20064;-73
2021/07/06 06:43:35;;;;;;;4.75;1.13;;;;;;;18.11;78.29;100057.66;4998065;28;20041;-74
2021/07/06 06:46:01;;;;;;;4.90;1.05;;;;;;;18.05;78.53;100081.13;4994119;28;20030;-73
2021/07/06 06:48:26;;;;;;;1.40;0.90;;;;;;;18.22;76.84;100062.13;4995553;28;20036;-74
2021/07/06 06:50:52;;;;;;;1.67;0.95;;;;;;;18.28;76.49;100048.13;4995927;28;20021;-72
2021/07/06 06:53:17;;;;;;;3.33;0.80;;;;;;;18.24;76.85;100079.25;4997470;28;20520;-72
2021/07/06 06:55:43;;;;;;;3.63;1.45;;;;;;;18.27;76.71;100089.31;4991238;28;20030;-74
2021/07/06 06:58:08;;;;;;;1.90;1.27;;;;;;;18.37;75.38;100083.50;4996727;28;20089;-73
2021/07/06 07:00:35;;;;;;;1.25;0.93;;;;;;;18.33;76.22;100095.47;5016601;28;20030;-74
2021/07/06 07:03:00;;;;;;;2.58;0.88;;;;;;;18.40;75.45;100090.94;5011755;28;20061;-75
2021/07/06 07:05:26;;;;;;;1.50;0.82;;;;;;;18.33;75.95;100100.72;4986117;28;20453;-74
2021/07/06 07:07:53;;;;;;;1.63;0.70;;;;;;;18.46;75.26;100103.16;4996136;28;20030;-73
2021/07/06 07:10:19;;;;;;;1.40;0.63;;;;;;;18.45;75.50;100098.13;4987725;28;20025;-73
2021/07/06 07:12:45;;;;;;;3.58;0.88;;;;;;;18.39;75.82;100106.91;4992366;28;20026;-74
2021/07/06 07:15:11;;;;;;;4.53;1.02;;;;;;;18.36;76.22;100113.38;4991369;28;20084;-72
2021/07/06 07:17:38;;;;;;;3.97;0.90;;;;;;;18.38;76.15;100124.44;4987711;28;20620;-74
2021/07/06 07:20:05;;;;;;;1.60;0.63;;;;;;;18.37;76.46;100143.88;4991903;28;20129;-74
2021/07/06 07:22:31;;;;;;;4.53;1.27;;;;;;;18.34;77.99;100149.53;4988244;28;20030;-73
2021/07/06 07:24:56;;;;;;;3.08;1.20;;;;;;;18.42;78.81;100151.88;4989600;28;20080;-72
2021/07/06 07:27:22;;;;;;;4.68;1.40;;;;;;;18.35;79.20;100158.25;4987434;28;20030;-73
2021/07/06 07:29:51;;;;;;;2.17;1.55;;;;;;;18.27;79.80;100168.03;4989263;28;20045;-75
2021/07/06 07:32:16;;;;;;;5.38;1.30;;;;;;;18.23;80.31;100169.50;4975070;28;20677;-74
2021/07/06 07:34:42;;;;;;;8.77;1.98;;;;;;;18.31;80.10;100184.13;4995029;28;20057;-74
2021/07/06 07:37:11;;;;;;;4.18;1.25;;;;;;;18.18;80.96;100186.91;4997875;28;20034;-74
2021/07/06 07:39:37;;;;;;;5.25;1.52;;;;;;;18.27;80.41;100185.56;5002856;28;20030;-74
2021/07/06 07:42:04;;;;;;;4.05;1.38;;;;;;;18.36;80.16;100192.09;4990384;28;20061;-74
2021/07/06 07:44:30;;;;;;;4.07;1.42;;;;;;;18.33;79.91;100200.44;5002555;23;20135;-74
2021/07/06 07:46:57;;;;;;;2.80;1.52;;;;;;;18.37;80.02;100206.06;5023712;28;20495;-75
2021/07/06 07:49:22;;;;;;;3.38;1.23;;;;;;;18.27;80.27;100217.88;5002373;28;20029;-74
2021/07/06 07:51:48;;;;;;;4.72;1.85;;;;;;;18.21;80.88;100213.50;5028526;28;20029;-74
2021/07/06 07:54:14;;;;;;;3.15;1.23;;;;;;;18.20;80.94;100208.50;5012884;28;20037;-74
2021/07/06 07:56:42;;;;;;;1.77;1.00;;;;;;;18.32;80.11;100211.94;5006018;28;20049;-74
2021/07/06 07:59:09;;;;;;;3.35;1.00;;;;;;;18.37;80.14;100216.56;5008639;28;20322;-74
2021/07/06 08:01:34;;;;;;;4.30;1.50;;;;;;;18.39;78.62;100198.75;4998768;28;20120;-74
2021/07/06 08:04:00;;;;;;;2.85;0.90;;;;;;;18.41;78.53;100200.13;5005552;28;20030;-74
2021/07/06 08:06:25;;;;;;;3.28;0.88;;;;;;;18.56;77.35;100206.81;5027410;28;20530;-73
2021/07/06 08:08:51;;;;;;;1.15;0.75;;;;;;;18.56;76.32;100212.84;5033177;28;20045;-75
2021/07/06 08:11:16;;;;;;;1.52;0.80;;;;;;;18.56;76.79;100222.56;5018041;28;20038;-74
2021/07/06 08:13:42;;;;;;;2.33;0.70;;;;;;;18.59;75.21;100219.47;5005130;28;20029;-75
2021/07/06 08:16:08;;;;;;;3.78;0.90;;;;;;;18.57;76.48;100224.16;5021220;28;20045;-74
2021/07/06 08:18:33;;;;;;;1.77;0.75;;;;;;;18.52;76.65;100218.78;5032753;28;20092;-74
2021/07/06 08:20:59;;;;;;;1.95;0.80;;;;;;;18.56;76.42;100212.06;4993521;28;20021;-74
2021/07/06 08:23:24;;;;;;;4.32;0.80;;;;;;;18.70;76.49;100204.78;5025821;28;20029;-75
2021/07/06 08:25:50;;;;;;;3.47;0.70;;;;;;;18.91;74.37;100211.38;5019307;28;20041;-73
2021/07/06 08:28:18;;;;;;;3.45;0.73;;;;;;;18.94;74.25;100195.19;5006199;28;20125;-73
2021/07/06 08:30:44;;;;;;;2.17;0.80;;;;;;;19.06;74.14;100193.34;5009072;28;20028;-73
2021/07/06 08:33:09;;;;;;;1.15;0.60;;;;;;;19.11;73.06;100201.38;5028792;28;20033;-74
2021/07/06 08:35:35;;;;;;;4.22;1.20;;;;;;;19.16;73.75;100203.34;5002555;28;20503;-74
2021/07/06 08:38:00;;;;;;;1.77;0.50;;;;;;;19.25;74.30;100215.13;5023554;28;20464;-74
2021/07/06 08:40:26;;;;;;;2.95;0.85;;;;;;;19.33;72.77;100227.13;5008645;28;20045;-73
2021/07/06 08:42:55;;;;;;;6.93;0.50;;;;;;;19.26;74.08;100228.00;5025778;28;20037;-74
2021/07/06 08:45:21;;;;;;;2.75;0.70;;;;;;;19.35;74.21;100225.06;5023442;28;20053;-73
2021/07/06 08:47:51;;;;;;;2.40;0.65;;;;;;;19.35;74.42;100219.81;5002248;28;20235;-74
2021/07/06 08:50:17;;;;;;;3.25;0.63;;;;;;;19.45;72.22;100220.81;5023651;28;20027;-73
2021/07/06 08:52:45;;;;;;;4.85;0.70;;;;;;;19.67;70.65;100224.72;5028264;28;20084;-72
2021/07/06 08:55:19;;;;;;;1.65;0.80;;;;;;;19.54;71.09;100223.91;5012079;28;20042;-72
2021/07/06 08:57:45;;;;;;;5.07;0.98;;;;;;;19.58;71.34;100224.25;5015698;28;20068;-73
2021/07/06 09:00:13;;;;;;;2.70;0.60;;;;;;;19.84;70.04;100215.91;5009758;28;20046;-73
2021/07/06 09:02:39;;;;;;;1.13;0.60;;;;;;;20.01;69.61;100218.63;5017439;28;20026;-73
2021/07/06 09:05:20;;;;;;;5.45;0.70;;;;;;;19.95;69.84;100216.94;5005501;28;20034;-74
2021/07/06 09:07:46;;;;;;;5.68;0.70;;;;;;;19.88;69.88;100228.63;5004752;28;20038;-73
2021/07/06 09:10:17;;;;;;;5.28;0.60;;;;;;;19.90;70.87;100234.44;5021846;28;20034;-74
2021/07/06 09:12:44;;;;;;;2.22;0.68;;;;;;;19.85;69.29;100240.38;5002067;28;20042;-73
2021/07/06 09:15:22;;;;;;;1.73;0.55;;;;;;;19.91;69.84;100233.38;5003127;28;20038;-73
2021/07/06 09:18:17;;;;;;;1.63;0.70;;;;;;;19.88;70.46;100236.50;5012821;28;20021;-73
2021/07/06 09:20:57;;;;;;;5.40;0.90;;;;;;;20.15;70.16;100234.16;4999033;28;20391;-73
2021/07/06 09:23:37;;;;;;;1.83;0.60;;;;;;;20.09;70.08;100235.09;5024672;28;20041;-75
2021/07/06 09:26:16;;;;;;;0.60;0.50;;;;;;;20.06;69.80;100244.25;5024352;28;20034;-73
2021/07/06 09:28:49;;;;;;;4.20;0.93;;;;;;;20.10;67.95;100247.19;5007638;28;20034;-73
2021/07/06 09:31:26;;;;;;;7.65;1.08;;;;;;;20.17;67.82;100255.78;5025115;28;20038;-74
2021/07/06 09:33:59;;;;;;;4.60;1.13;;;;;;;20.49;66.75;100237.69;5023136;28;20334;-73
2021/07/06 09:36:34;;;;;;;3.25;0.90;;;;;;;20.66;67.05;100245.66;5008140;28;20119;-73
2021/07/06 09:39:11;;;;;;;3.35;1.02;;;;;;;20.52;64.11;100241.72;5016270;28;20054;-73
2021/07/06 09:41:39;;;;;;;2.72;0.80;;;;;;;20.53;61.83;100267.00;5007418;28;20088;-73
2021/07/06 09:44:22;;;;;;;2.97;1.10;;;;;;;20.48;61.74;100262.44;5009125;28;20041;-74
2021/07/06 09:46:52;;;;;;;5.43;1.17;;;;;;;20.61;62.81;100269.31;5012638;28;20033;-72
2021/07/06 09:49:20;;;;;;;5.20;1.00;;;;;;;20.61;59.93;100254.28;4993239;28;20056;-73
2021/07/06 09:51:48;;;;;;;4.95;0.80;;;;;;;20.84;60.50;100263.13;5006384;28;20025;-72
2021/07/06 09:54:29;;;;;;;1.40;0.70;;;;;;;21.09;58.58;100262.75;5015752;28;20034;-71
2021/07/06 09:58:00;;;;;;;3.45;0.68;;;;;;;21.35;59.17;100278.97;4994533;28;20083;-75
2021/07/06 10:00:11;;;;;;;4.70;1.02;;;;;;;21.78;57.14;100273.06;5003398;28;20049;-72
2021/07/06 10:02:44;;;;;;;4.55;0.60;;;;;;;22.17;55.62;100264.31;5011939;28;20032;-73
2021/07/06 10:05:13;;;;;;;3.88;0.40;;;;;;;22.56;55.60;100277.44;5022091;28;20034;-72
2021/07/06 10:07:40;;;;;;;11.63;0.63;;;;;;;22.80;54.57;100275.31;5011584;28;20033;-74
2021/07/06 10:10:09;;;;;;;5.80;0.57;;;;;;;23.06;52.03;100271.09;5031379;28;20547;-73
2021/07/06 10:12:37;;;;;;;3.17;0.73;;;;;;;22.44;51.07;100272.31;5018544;28;20040;-72
2021/07/06 10:15:06;;;;;;;4.32;0.80;;;;;;;22.62;53.35;100275.66;5009041;28;20041;-73
2021/07/06 10:17:34;;;;;;;3.13;0.57;;;;;;;22.42;53.82;100263.06;5004681;28;20121;-74
2021/07/06 10:20:00;;;;;;;1.80;0.73;;;;;;;22.09;54.12;100278.72;5011101;28;20483;-72
2021/07/06 10:22:26;;;;;;;2.88;0.80;;;;;;;22.09;54.62;100276.09;5027553;28;20394;-71
2021/07/06 10:24:51;;;;;;;2.97;0.73;;;;;;;22.10;53.39;100285.63;5001518;28;20189;-75
2021/07/06 10:27:22;;;;;;;4.97;1.25;;;;;;;22.58;53.98;100291.22;5003332;28;20029;-73
2021/07/06 10:30:04;;;;;;;2.83;0.80;;;;;;;23.07;52.37;100290.38;5002543;28;20037;-74
2021/07/06 10:32:38;;;;;;;1.60;0.70;;;;;;;23.24;50.99;100296.34;5024995;28;20037;-73
2021/07/06 10:35:05;;;;;;;3.45;0.80;;;;;;;22.76;49.30;100290.09;5003378;28;20534;-74
2021/07/06 10:37:31;;;;;;;5.10;0.90;;;;;;;22.43;50.96;100304.25;5010284;28;20026;-74
2021/07/06 10:40:19;;;;;;;6.72;1.05;;;;;;;22.05;51.33;100316.41;5003640;28;20057;-72
2021/07/06 10:42:46;;;;;;;2.88;1.25;;;;;;;22.19;49.47;100308.94;5020101;28;20038;-73
2021/07/06 10:45:18;;;;;;;1.33;0.50;;;;;;;22.56;51.76;100301.22;5004382;28;20065;-73
2021/07/06 10:47:46;;;;;;;2.40;0.57;;;;;;;22.82;49.77;100298.84;5009120;28;20033;-73
2021/07/06 10:50:23;;;;;;;3.65;0.55;;;;;;;22.94;51.91;100318.81;5013682;28;20038;-73
2021/07/06 10:52:48;;;;;;;2.05;0.60;;;;;;;23.34;48.67;100300.94;5006311;28;20030;-73
2021/07/06 10:55:34;;;;;;;1.48;0.63;;;;;;;23.53;49.49;100317.22;5005707;28;20046;-73
2021/07/06 10:57:59;;;;;;;6.55;0.60;;;;;;;23.44;48.98;100316.88;4992478;28;20034;-73
2021/07/06 11:00:45;;;;;;;3.05;0.50;;;;;;;23.00;47.40;100310.91;5020217;28;20041;-73
2021/07/06 11:03:19;;;;;;;2.97;0.70;;;;;;;23.05;48.46;100318.94;5007513;28;20044;-72
2021/07/06 11:05:45;;;;;;;1.10;0.70;;;;;;;22.86;48.39;100323.75;5005638;28;20492;-73
2021/07/06 11:08:40;;;;;;;1.38;0.60;;;;;;;23.05;48.41;100329.50;5009978;28;20112;-74
2021/07/06 11:11:06;;;;;;;2.20;0.55;;;;;;;23.46;48.83;100313.97;5027338;28;20041;-73
2021/07/06 11:13:31;;;;;;;2.90;0.52;;;;;;;23.65;48.62;100309.88;5022296;28;20038;-73
2021/07/06 11:15:59;;;;;;;1.85;0.50;;;;;;;23.93;47.92;100304.53;5018907;28;20245;-72
2021/07/06 11:18:36;;;;;;;2.92;0.40;;;;;;;24.08;45.85;100304.59;5009427;28;20139;-73
2021/07/06 11:21:02;;;;;;;3.83;0.80;;;;;;;24.29;45.86;100289.59;5022708;28;20393;-72
2021/07/06 11:23:36;;;;;;;9.18;1.25;;;;;;;24.00;45.70;100307.75;4984351;28;20054;-72
2021/07/06 11:26:04;;;;;;;6.10;0.70;;;;;;;24.13;45.52;100303.81;5006536;28;20033;-73